sensor_id;sensor_type;location;lat;lon;timestamp;pressure;altitude;pressure_sealevel;temperature;humidity
81352;BME280;70809;52.184;13.422;2024-01-25T00:00:45;101249.16;;;7.37;72.92
81352;BME280;70809;52.184;13.422;2024-01-25T00:01:47;101255.09;;;7.32;73.03
81352;BME280;70809;52.184;13.422;2024-01-25T00:02:49;101235.97;;;7.36;72.82
81352;BME280;70809;52.184;13.422;2024-01-25T00:03:51;101249.00;;;7.33;72.92
81352;BME280;70809;52.184;13.422;2024-01-25T00:04:52;101243.72;;;7.33;72.91
81352;BME280;70809;52.184;13.422;2024-01-25T00:05:54;101247.88;;;7.26;73.52
81352;BME280;70809;52.184;13.422;2024-01-25T00:06:56;101242.84;;;7.32;73.30
81352;BME280;70809;52.184;13.422;2024-01-25T00:07:57;101245.63;;;7.37;72.81
81352;BME280;70809;52.184;13.422;2024-01-25T00:08:59;101248.94;;;7.31;73.30
81352;BME280;70809;52.184;13.422;2024-01-25T00:10:01;101274.34;;;7.31;73.20
81352;BME280;70809;52.184;13.422;2024-01-25T00:11:04;101266.41;;;7.29;73.46
81352;BME280;70809;52.184;13.422;2024-01-25T00:12:06;101264.75;;;7.33;73.15
81352;BME280;70809;52.184;13.422;2024-01-25T00:13:08;101272.47;;;7.28;73.50
81352;BME280;70809;52.184;13.422;2024-01-25T00:14:10;101262.13;;;7.33;73.32
81352;BME280;70809;52.184;13.422;2024-01-25T00:15:12;101258.59;;;7.32;73.08
81352;BME280;70809;52.184;13.422;2024-01-25T00:16:14;101284.00;;;7.32;73.22
81352;BME280;70809;52.184;13.422;2024-01-25T00:17:16;101269.28;;;7.37;72.85
81352;BME280;70809;52.184;13.422;2024-01-25T00:18:17;101275.28;;;7.33;73.26
81352;BME280;70809;52.184;13.422;2024-01-25T00:19:19;101287.69;;;7.37;73.11
81352;BME280;70809;52.184;13.422;2024-01-25T00:20:21;101284.81;;;7.29;73.34
81352;BME280;70809;52.184;13.422;2024-01-25T00:21:22;101291.78;;;7.29;73.50
81352;BME280;70809;52.184;13.422;2024-01-25T00:22:24;101275.22;;;7.31;73.48
81352;BME280;70809;52.184;13.422;2024-01-25T00:23:26;101288.50;;;7.34;73.38
81352;BME280;70809;52.184;13.422;2024-01-25T00:24:28;101292.78;;;7.32;73.58
81352;BME280;70809;52.184;13.422;2024-01-25T00:25:30;101282.44;;;7.37;73.02
81352;BME280;70809;52.184;13.422;2024-01-25T00:26:32;101292.00;;;7.35;73.44
81352;BME280;70809;52.184;13.422;2024-01-25T00:27:34;101280.81;;;7.40;72.93
81352;BME280;70809;52.184;13.422;2024-01-25T00:28:36;101293.84;;;7.37;73.08
81352;BME280;70809;52.184;13.422;2024-01-25T00:29:37;101309.56;;;7.36;73.40
81352;BME280;70809;52.184;13.422;2024-01-25T00:30:39;101289.31;;;7.33;73.30
81352;BME280;70809;52.184;13.422;2024-01-25T00:31:41;101300.81;;;7.37;73.15
81352;BME280;70809;52.184;13.422;2024-01-25T00:32:42;101307.19;;;7.43;72.71
81352;BME280;70809;52.184;13.422;2024-01-25T00:33:45;101300.56;;;7.55;72.24
81352;BME280;70809;52.184;13.422;2024-01-25T00:34:47;101282.00;;;7.50;72.52
81352;BME280;70809;52.184;13.422;2024-01-25T00:35:49;101310.88;;;7.49;72.67
81352;BME280;70809;52.184;13.422;2024-01-25T00:36:51;101290.75;;;7.49;72.61
81352;BME280;70809;52.184;13.422;2024-01-25T00:37:54;101313.34;;;7.44;72.56
81352;BME280;70809;52.184;13.422;2024-01-25T00:38:56;101304.16;;;7.57;71.61
81352;BME280;70809;52.184;13.422;2024-01-25T00:39:58;101298.13;;;7.59;71.67
81352;BME280;70809;52.184;13.422;2024-01-25T00:41:00;101314.63;;;7.55;72.08
81352;BME280;70809;52.184;13.422;2024-01-25T00:42:05;101305.88;;;7.56;71.83
81352;BME280;70809;52.184;13.422;2024-01-25T00:43:07;101303.13;;;7.52;72.13
81352;BME280;70809;52.184;13.422;2024-01-25T00:44:10;101327.53;;;7.49;72.11
81352;BME280;70809;52.184;13.422;2024-01-25T00:45:13;101320.84;;;7.57;71.38
81352;BME280;70809;52.184;13.422;2024-01-25T00:46:15;101316.31;;;7.53;72.27
81352;BME280;70809;52.184;13.422;2024-01-25T00:47:17;101324.25;;;7.55;71.84
81352;BME280;70809;52.184;13.422;2024-01-25T00:48:19;101309.19;;;7.51;72.42
81352;BME280;70809;52.184;13.422;2024-01-25T00:49:22;101313.63;;;7.52;72.54
81352;BME280;70809;52.184;13.422;2024-01-25T00:50:24;101346.78;;;7.48;72.21
81352;BME280;70809;52.184;13.422;2024-01-25T00:51:27;101289.97;;;7.52;72.16
81352;BME280;70809;52.184;13.422;2024-01-25T00:52:29;101316.41;;;7.56;71.97
81352;BME280;70809;52.184;13.422;2024-01-25T00:53:32;101307.53;;;7.53;71.98
81352;BME280;70809;52.184;13.422;2024-01-25T00:54:34;101294.31;;;7.51;71.97
81352;BME280;70809;52.184;13.422;2024-01-25T00:55:36;101317.06;;;7.51;71.94
81352;BME280;70809;52.184;13.422;2024-01-25T00:56:38;101312.63;;;7.48;72.21
81352;BME280;70809;52.184;13.422;2024-01-25T00:57:42;101302.94;;;7.47;72.21
81352;BME280;70809;52.184;13.422;2024-01-25T00:58:44;101321.44;;;7.50;72.05
81352;BME280;70809;52.184;13.422;2024-01-25T00:59:46;101306.53;;;7.49;71.79
81352;BME280;70809;52.184;13.422;2024-01-25T01:00:48;101315.13;;;7.45;72.27
81352;BME280;70809;52.184;13.422;2024-01-25T01:01:52;101309.94;;;7.47;71.90
81352;BME280;70809;52.184;13.422;2024-01-25T01:02:57;101318.91;;;7.52;71.59
81352;BME280;70809;52.184;13.422;2024-01-25T01:04:00;101311.91;;;7.52;72.09
81352;BME280;70809;52.184;13.422;2024-01-25T01:05:02;101334.50;;;7.47;71.87
81352;BME280;70809;52.184;13.422;2024-01-25T01:06:05;101327.53;;;7.49;71.92
81352;BME280;70809;52.184;13.422;2024-01-25T01:07:08;101324.06;;;7.50;71.79
81352;BME280;70809;52.184;13.422;2024-01-25T01:08:11;101323.22;;;7.51;71.52
81352;BME280;70809;52.184;13.422;2024-01-25T01:09:13;101322.41;;;7.52;71.63
81352;BME280;70809;52.184;13.422;2024-01-25T01:10:15;101331.13;;;7.51;71.76
81352;BME280;70809;52.184;13.422;2024-01-25T01:11:17;101343.31;;;7.49;72.37
81352;BME280;70809;52.184;13.422;2024-01-25T01:12:18;101337.97;;;7.46;72.07
81352;BME280;70809;52.184;13.422;2024-01-25T01:13:21;101318.78;;;7.49;71.82
81352;BME280;70809;52.184;13.422;2024-01-25T01:14:23;101332.03;;;7.52;72.33
81352;BME280;70809;52.184;13.422;2024-01-25T01:15:24;101324.81;;;7.46;72.92
81352;BME280;70809;52.184;13.422;2024-01-25T01:16:26;101319.78;;;7.52;72.21
81352;BME280;70809;52.184;13.422;2024-01-25T01:17:28;101332.94;;;7.52;71.58
81352;BME280;70809;52.184;13.422;2024-01-25T01:18:29;101347.84;;;7.53;72.10
81352;BME280;70809;52.184;13.422;2024-01-25T01:19:31;101337.22;;;7.50;72.64
81352;BME280;70809;52.184;13.422;2024-01-25T01:20:33;101346.78;;;7.48;72.37
81352;BME280;70809;52.184;13.422;2024-01-25T01:21:37;101349.41;;;7.48;72.37
81352;BME280;70809;52.184;13.422;2024-01-25T01:22:38;101338.91;;;7.48;72.56
81352;BME280;70809;52.184;13.422;2024-01-25T01:23:40;101339.75;;;7.47;72.48
81352;BME280;70809;52.184;13.422;2024-01-25T01:24:42;101346.78;;;7.48;71.87
81352;BME280;70809;52.184;13.422;2024-01-25T01:25:44;101355.56;;;7.49;71.91
81352;BME280;70809;52.184;13.422;2024-01-25T01:26:45;101358.19;;;7.49;72.15
81352;BME280;70809;52.184;13.422;2024-01-25T01:27:47;101344.22;;;7.50;71.95
81352;BME280;70809;52.184;13.422;2024-01-25T01:28:50;101345.00;;;7.47;72.27
81352;BME280;70809;52.184;13.422;2024-01-25T01:29:52;101341.50;;;7.47;72.14
81352;BME280;70809;52.184;13.422;2024-01-25T01:30:53;101358.16;;;7.47;71.88
81352;BME280;70809;52.184;13.422;2024-01-25T01:31:58;101337.16;;;7.49;71.96
81352;BME280;70809;52.184;13.422;2024-01-25T01:32:59;101335.38;;;7.48;72.57
81352;BME280;70809;52.184;13.422;2024-01-25T01:34:01;101340.53;;;7.44;72.00
81352;BME280;70809;52.184;13.422;2024-01-25T01:35:04;101340.59;;;7.46;72.26
81352;BME280;70809;52.184;13.422;2024-01-25T01:36:06;101357.09;;;7.42;72.56
81352;BME280;70809;52.184;13.422;2024-01-25T01:37:08;101351.00;;;7.43;72.22
81352;BME280;70809;52.184;13.422;2024-01-25T01:38:10;101355.31;;;7.41;72.92
81352;BME280;70809;52.184;13.422;2024-01-25T01:39:12;101356.28;;;7.44;72.42
81352;BME280;70809;52.184;13.422;2024-01-25T01:40:13;101356.38;;;7.46;72.34
81352;BME280;70809;52.184;13.422;2024-01-25T01:41:15;101356.25;;;7.43;72.69
81352;BME280;70809;52.184;13.422;2024-01-25T01:42:17;101366.66;;;7.40;72.83
81352;BME280;70809;52.184;13.422;2024-01-25T01:43:19;101361.50;;;7.43;72.75
81352;BME280;70809;52.184;13.422;2024-01-25T01:44:22;101354.41;;;7.40;72.66
81352;BME280;70809;52.184;13.422;2024-01-25T01:45:24;101350.06;;;7.41;72.85
81352;BME280;70809;52.184;13.422;2024-01-25T01:46:32;101358.78;;;7.40;72.85
81352;BME280;70809;52.184;13.422;2024-01-25T01:47:34;101359.81;;;7.45;72.38
81352;BME280;70809;52.184;13.422;2024-01-25T01:48:36;101357.19;;;7.45;72.63
81352;BME280;70809;52.184;13.422;2024-01-25T01:49:38;101358.78;;;7.40;72.77
81352;BME280;70809;52.184;13.422;2024-01-25T01:50:40;101371.25;;;7.45;72.41
81352;BME280;70809;52.184;13.422;2024-01-25T01:51:42;101379.06;;;7.44;72.39
81352;BME280;70809;52.184;13.422;2024-01-25T01:52:45;101374.88;;;7.49;71.95
81352;BME280;70809;52.184;13.422;2024-01-25T01:53:47;101359.94;;;7.48;71.83
81352;BME280;70809;52.184;13.422;2024-01-25T01:54:49;101365.25;;;7.50;71.52
81352;BME280;70809;52.184;13.422;2024-01-25T01:55:51;101365.19;;;7.48;71.69
81352;BME280;70809;52.184;13.422;2024-01-25T01:56:53;101359.22;;;7.52;71.49
81352;BME280;70809;52.184;13.422;2024-01-25T01:57:55;101363.47;;;7.49;71.95
81352;BME280;70809;52.184;13.422;2024-01-25T01:58:58;101374.78;;;7.46;72.25
81352;BME280;70809;52.184;13.422;2024-01-25T02:00:03;101378.22;;;7.45;71.89
81352;BME280;70809;52.184;13.422;2024-01-25T02:01:13;101384.31;;;7.44;71.96
81352;BME280;70809;52.184;13.422;2024-01-25T02:02:14;101373.75;;;7.42;71.95
81352;BME280;70809;52.184;13.422;2024-01-25T02:03:16;101383.25;;;7.39;72.29
81352;BME280;70809;52.184;13.422;2024-01-25T02:04:18;101377.31;;;7.44;71.67
81352;BME280;70809;52.184;13.422;2024-01-25T02:05:20;101367.56;;;7.40;71.84
81352;BME280;70809;52.184;13.422;2024-01-25T02:06:22;101364.13;;;7.43;71.84
81352;BME280;70809;52.184;13.422;2024-01-25T02:07:24;101374.28;;;7.34;72.43
81352;BME280;70809;52.184;13.422;2024-01-25T02:08:26;101384.94;;;7.37;72.72
81352;BME280;70809;52.184;13.422;2024-01-25T02:09:27;101385.06;;;7.40;72.30
81352;BME280;70809;52.184;13.422;2024-01-25T02:10:29;101367.38;;;7.36;72.44
81352;BME280;70809;52.184;13.422;2024-01-25T02:11:31;101376.22;;;7.38;71.73
81352;BME280;70809;52.184;13.422;2024-01-25T02:12:32;101368.31;;;7.38;72.13
81352;BME280;70809;52.184;13.422;2024-01-25T02:13:34;101358.66;;;7.37;72.03
81352;BME280;70809;52.184;13.422;2024-01-25T02:14:36;101382.31;;;7.37;72.50
81352;BME280;70809;52.184;13.422;2024-01-25T02:15:39;101377.06;;;7.37;72.27
81352;BME280;70809;52.184;13.422;2024-01-25T02:16:40;101367.25;;;7.33;72.15
81352;BME280;70809;52.184;13.422;2024-01-25T02:17:42;101377.00;;;7.35;72.00
81352;BME280;70809;52.184;13.422;2024-01-25T02:18:44;101393.72;;;7.37;71.88
81352;BME280;70809;52.184;13.422;2024-01-25T02:19:46;101366.66;;;7.40;71.94
81352;BME280;70809;52.184;13.422;2024-01-25T02:20:48;101373.53;;;7.36;72.29
81352;BME280;70809;52.184;13.422;2024-01-25T02:21:51;101380.53;;;7.36;71.62
81352;BME280;70809;52.184;13.422;2024-01-25T02:22:56;101378.75;;;7.35;71.73
81352;BME280;70809;52.184;13.422;2024-01-25T02:23:58;101368.28;;;7.36;71.81
81352;BME280;70809;52.184;13.422;2024-01-25T02:25:00;101370.72;;;7.32;72.08
81352;BME280;70809;52.184;13.422;2024-01-25T02:26:02;101367.25;;;7.33;71.83
81352;BME280;70809;52.184;13.422;2024-01-25T02:27:04;101370.63;;;7.29;72.45
81352;BME280;70809;52.184;13.422;2024-01-25T02:28:06;101366.31;;;7.31;71.99
81352;BME280;70809;52.184;13.422;2024-01-25T02:29:07;101370.72;;;7.32;72.16
81352;BME280;70809;52.184;13.422;2024-01-25T02:30:10;101371.56;;;7.31;72.22
81352;BME280;70809;52.184;13.422;2024-01-25T02:31:11;101372.50;;;7.33;72.18
81352;BME280;70809;52.184;13.422;2024-01-25T02:32:13;101373.31;;;7.30;72.12
81352;BME280;70809;52.184;13.422;2024-01-25T02:33:15;101377.66;;;7.30;71.90
81352;BME280;70809;52.184;13.422;2024-01-25T02:34:16;101390.72;;;7.28;72.30
81352;BME280;70809;52.184;13.422;2024-01-25T02:35:18;101370.72;;;7.32;71.73
81352;BME280;70809;52.184;13.422;2024-01-25T02:36:21;101368.81;;;7.28;72.06
81352;BME280;70809;52.184;13.422;2024-01-25T02:37:23;101367.06;;;7.28;72.61
81352;BME280;70809;52.184;13.422;2024-01-25T02:38:26;101365.41;;;7.30;72.01
81352;BME280;70809;52.184;13.422;2024-01-25T02:39:28;101373.19;;;7.27;72.83
81352;BME280;70809;52.184;13.422;2024-01-25T02:40:30;101371.44;;;7.28;72.63
81352;BME280;70809;52.184;13.422;2024-01-25T02:41:32;101369.66;;;7.27;72.29
81352;BME280;70809;52.184;13.422;2024-01-25T02:42:34;101360.00;;;7.26;72.83
81352;BME280;70809;52.184;13.422;2024-01-25T02:43:35;101381.81;;;7.23;72.89
81352;BME280;70809;52.184;13.422;2024-01-25T02:44:37;101372.28;;;7.27;72.59
81352;BME280;70809;52.184;13.422;2024-01-25T02:45:39;101379.22;;;7.25;72.93
81352;BME280;70809;52.184;13.422;2024-01-25T02:46:40;101374.97;;;7.28;72.48
81352;BME280;70809;52.184;13.422;2024-01-25T02:47:42;101365.25;;;7.26;72.37
81352;BME280;70809;52.184;13.422;2024-01-25T02:48:44;101364.34;;;7.25;72.52
81352;BME280;70809;52.184;13.422;2024-01-25T02:49:45;101373.13;;;7.26;72.24
81352;BME280;70809;52.184;13.422;2024-01-25T02:50:47;101375.81;;;7.27;72.09
81352;BME280;70809;52.184;13.422;2024-01-25T02:51:49;101381.16;;;7.29;72.13
81352;BME280;70809;52.184;13.422;2024-01-25T02:52:51;101371.53;;;7.29;72.28
81352;BME280;70809;52.184;13.422;2024-01-25T02:53:54;101381.00;;;7.26;72.34
81352;BME280;70809;52.184;13.422;2024-01-25T02:54:55;101373.09;;;7.24;72.29
81352;BME280;70809;52.184;13.422;2024-01-25T02:55:57;101365.38;;;7.29;72.03
81352;BME280;70809;52.184;13.422;2024-01-25T02:56:59;101375.72;;;7.24;72.52
81352;BME280;70809;52.184;13.422;2024-01-25T02:58:00;101380.16;;;7.27;72.53
81352;BME280;70809;52.184;13.422;2024-01-25T02:59:02;101376.47;;;7.22;72.43
81352;BME280;70809;52.184;13.422;2024-01-25T03:00:05;101386.16;;;7.23;72.53
81352;BME280;70809;52.184;13.422;2024-01-25T03:01:06;101382.69;;;7.24;72.20
81352;BME280;70809;52.184;13.422;2024-01-25T03:02:08;101390.44;;;7.21;72.57
81352;BME280;70809;52.184;13.422;2024-01-25T03:03:10;101380.00;;;7.22;72.31
81352;BME280;70809;52.184;13.422;2024-01-25T03:04:12;101383.53;;;7.23;72.23
81352;BME280;70809;52.184;13.422;2024-01-25T03:05:14;101392.19;;;7.20;72.42
81352;BME280;70809;52.184;13.422;2024-01-25T03:06:15;101389.56;;;7.20;72.84
81352;BME280;70809;52.184;13.422;2024-01-25T03:07:17;101408.84;;;7.21;72.56
81352;BME280;70809;52.184;13.422;2024-01-25T03:08:19;101398.47;;;7.24;71.57
81352;BME280;70809;52.184;13.422;2024-01-25T03:09:22;101400.47;;;7.31;71.36
81352;BME280;70809;52.184;13.422;2024-01-25T03:10:24;101396.78;;;7.26;72.22
81352;BME280;70809;52.184;13.422;2024-01-25T03:11:26;101403.72;;;7.24;71.59
81352;BME280;70809;52.184;13.422;2024-01-25T03:12:28;101401.16;;;7.25;71.81
81352;BME280;70809;52.184;13.422;2024-01-25T03:13:29;101408.13;;;7.25;71.93
81352;BME280;70809;52.184;13.422;2024-01-25T03:14:33;101404.00;;;7.31;71.54
81352;BME280;70809;52.184;13.422;2024-01-25T03:15:34;101398.47;;;7.24;71.57
81352;BME280;70809;52.184;13.422;2024-01-25T03:16:36;101407.34;;;7.27;71.13
81352;BME280;70809;52.184;13.422;2024-01-25T03:17:38;101415.31;;;7.29;71.38
81352;BME280;70809;52.184;13.422;2024-01-25T03:18:40;101403.81;;;7.27;71.45
81352;BME280;70809;52.184;13.422;2024-01-25T03:19:41;101408.19;;;7.26;70.57
81352;BME280;70809;52.184;13.422;2024-01-25T03:20:44;101424.97;;;7.30;70.52
81352;BME280;70809;52.184;13.422;2024-01-25T03:21:45;101414.38;;;7.28;70.87
81352;BME280;70809;52.184;13.422;2024-01-25T03:22:47;101416.13;;;7.28;70.93
81352;BME280;70809;52.184;13.422;2024-01-25T03:23:49;101411.00;;;7.31;70.88
81352;BME280;70809;52.184;13.422;2024-01-25T03:24:52;101422.97;;;7.23;70.88
81352;BME280;70809;52.184;13.422;2024-01-25T03:25:54;101411.09;;;7.34;69.62
81352;BME280;70809;52.184;13.422;2024-01-25T03:26:55;101416.25;;;7.31;70.07
81352;BME280;70809;52.184;13.422;2024-01-25T03:27:57;101408.41;;;7.32;70.08
81352;BME280;70809;52.184;13.422;2024-01-25T03:28:59;101406.59;;;7.30;70.31
81352;BME280;70809;52.184;13.422;2024-01-25T03:30:00;101407.28;;;7.26;70.65
81352;BME280;70809;52.184;13.422;2024-01-25T03:31:02;101404.66;;;7.26;70.74
81352;BME280;70809;52.184;13.422;2024-01-25T03:32:04;101429.16;;;7.25;70.57
81352;BME280;70809;52.184;13.422;2024-01-25T03:33:06;101406.41;;;7.25;70.46
81352;BME280;70809;52.184;13.422;2024-01-25T03:34:08;101402.03;;;7.26;70.21
81352;BME280;70809;52.184;13.422;2024-01-25T03:35:10;101409.06;;;7.27;70.12
81352;BME280;70809;52.184;13.422;2024-01-25T03:36:13;101417.00;;;7.28;69.78
81352;BME280;70809;52.184;13.422;2024-01-25T03:37:15;101409.25;;;7.31;69.64
81352;BME280;70809;52.184;13.422;2024-01-25T03:38:17;101448.06;;;7.38;68.53
81352;BME280;70809;52.184;13.422;2024-01-25T03:39:18;101413.00;;;7.38;68.96
81352;BME280;70809;52.184;13.422;2024-01-25T03:40:22;101427.59;;;7.30;69.88
81352;BME280;70809;52.184;13.422;2024-01-25T03:41:23;101409.22;;;7.30;69.59
81352;BME280;70809;52.184;13.422;2024-01-25T03:42:25;101429.34;;;7.29;69.72
81352;BME280;70809;52.184;13.422;2024-01-25T03:43:27;101420.47;;;7.27;69.83
81352;BME280;70809;52.184;13.422;2024-01-25T03:44:43;101429.03;;;7.22;70.32
81352;BME280;70809;52.184;13.422;2024-01-25T03:45:45;101420.19;;;7.19;70.63
81352;BME280;70809;52.184;13.422;2024-01-25T03:46:47;101428.13;;;7.21;70.06
81352;BME280;70809;52.184;13.422;2024-01-25T03:47:48;101430.91;;;7.24;69.74
81352;BME280;70809;52.184;13.422;2024-01-25T03:48:51;101430.06;;;7.25;70.36
81352;BME280;70809;52.184;13.422;2024-01-25T03:49:53;101422.22;;;7.27;70.19
81352;BME280;70809;52.184;13.422;2024-01-25T03:50:55;101441.50;;;7.27;70.14
81352;BME280;70809;52.184;13.422;2024-01-25T03:51:57;101451.25;;;7.30;69.30
81352;BME280;70809;52.184;13.422;2024-01-25T03:52:58;101447.66;;;7.28;69.38
81352;BME280;70809;52.184;13.422;2024-01-25T03:54:00;101440.66;;;7.28;69.42
81352;BME280;70809;52.184;13.422;2024-01-25T03:55:02;101437.28;;;7.31;69.81
81352;BME280;70809;52.184;13.422;2024-01-25T03:56:10;101447.50;;;7.23;69.68
81352;BME280;70809;52.184;13.422;2024-01-25T03:57:12;101450.03;;;7.22;69.58
81352;BME280;70809;52.184;13.422;2024-01-25T03:58:14;101448.41;;;7.24;70.17
81352;BME280;70809;52.184;13.422;2024-01-25T03:59:15;101455.50;;;7.26;69.49
81352;BME280;70809;52.184;13.422;2024-01-25T04:00:17;101452.91;;;7.28;69.60
81352;BME280;70809;52.184;13.422;2024-01-25T04:01:19;101448.31;;;7.22;70.08
81352;BME280;70809;52.184;13.422;2024-01-25T04:02:21;101448.22;;;7.19;69.88
81352;BME280;70809;52.184;13.422;2024-01-25T04:03:23;101441.41;;;7.24;69.89
81352;BME280;70809;52.184;13.422;2024-01-25T04:04:25;101443.00;;;7.21;70.53
81352;BME280;70809;52.184;13.422;2024-01-25T04:05:27;101436.00;;;7.21;69.98
81352;BME280;70809;52.184;13.422;2024-01-25T04:06:28;101442.97;;;7.19;69.92
81352;BME280;70809;52.184;13.422;2024-01-25T04:07:30;101439.53;;;7.22;70.21
81352;BME280;70809;52.184;13.422;2024-01-25T04:08:32;101432.53;;;7.22;69.98
81352;BME280;70809;52.184;13.422;2024-01-25T04:09:33;101425.31;;;7.16;69.81
81352;BME280;70809;52.184;13.422;2024-01-25T04:10:35;101429.81;;;7.19;69.75
81352;BME280;70809;52.184;13.422;2024-01-25T04:11:38;101428.22;;;7.23;69.77
81352;BME280;70809;52.184;13.422;2024-01-25T04:12:40;101426.25;;;7.17;69.79
81352;BME280;70809;52.184;13.422;2024-01-25T04:13:42;101429.78;;;7.17;69.35
81352;BME280;70809;52.184;13.422;2024-01-25T04:14:43;101436.81;;;7.18;69.77
81352;BME280;70809;52.184;13.422;2024-01-25T04:15:45;101441.16;;;7.18;69.48
81352;BME280;70809;52.184;13.422;2024-01-25T04:16:47;101424.50;;;7.17;69.49
81352;BME280;70809;52.184;13.422;2024-01-25T04:17:48;101434.88;;;7.14;70.47
81352;BME280;70809;52.184;13.422;2024-01-25T04:18:50;101442.91;;;7.17;69.69
81352;BME280;70809;52.184;13.422;2024-01-25T04:19:52;101438.47;;;7.16;69.65
81352;BME280;70809;52.184;13.422;2024-01-25T04:20:54;101450.66;;;7.14;69.42
81352;BME280;70809;52.184;13.422;2024-01-25T04:21:56;101442.97;;;7.19;69.52
81352;BME280;70809;52.184;13.422;2024-01-25T04:22:58;101445.78;;;7.24;68.86
81352;BME280;70809;52.184;13.422;2024-01-25T04:23:59;101451.69;;;7.18;69.36
81352;BME280;70809;52.184;13.422;2024-01-25T04:25:01;101452.56;;;7.18;69.39
81352;BME280;70809;52.184;13.422;2024-01-25T04:26:03;101456.09;;;7.19;69.21
81352;BME280;70809;52.184;13.422;2024-01-25T04:27:06;101465.56;;;7.15;69.66
81352;BME280;70809;52.184;13.422;2024-01-25T04:28:08;101450.88;;;7.21;68.92
81352;BME280;70809;52.184;13.422;2024-01-25T04:29:10;101456.28;;;7.24;68.17
81352;BME280;70809;52.184;13.422;2024-01-25T04:30:11;101468.63;;;7.26;68.60
81352;BME280;70809;52.184;13.422;2024-01-25T04:31:13;101467.72;;;7.26;68.85
81352;BME280;70809;52.184;13.422;2024-01-25T04:32:15;101463.13;;;7.20;69.01
81352;BME280;70809;52.184;13.422;2024-01-25T04:33:17;101462.06;;;7.15;69.40
81352;BME280;70809;52.184;13.422;2024-01-25T04:34:19;101469.94;;;7.15;69.22
81352;BME280;70809;52.184;13.422;2024-01-25T04:35:21;101468.94;;;7.11;69.31
81352;BME280;70809;52.184;13.422;2024-01-25T04:36:22;101473.47;;;7.15;69.32
81352;BME280;70809;52.184;13.422;2024-01-25T04:37:24;101474.34;;;7.16;69.45
81352;BME280;70809;52.184;13.422;2024-01-25T04:38:26;101468.22;;;7.15;69.42
81352;BME280;70809;52.184;13.422;2024-01-25T04:39:27;101472.47;;;7.12;69.30
81352;BME280;70809;52.184;13.422;2024-01-25T04:40:29;101480.25;;;7.10;69.58
81352;BME280;70809;52.184;13.422;2024-01-25T04:41:30;101472.47;;;7.12;69.90
81352;BME280;70809;52.184;13.422;2024-01-25T04:42:33;101483.78;;;7.11;69.38
81352;BME280;70809;52.184;13.422;2024-01-25T04:43:35;101478.72;;;7.15;69.12
81352;BME280;70809;52.184;13.422;2024-01-25T04:44:37;101476.88;;;7.13;69.28
81352;BME280;70809;52.184;13.422;2024-01-25T04:45:39;101491.66;;;7.11;69.60
81352;BME280;70809;52.184;13.422;2024-01-25T04:46:41;101480.09;;;7.06;69.16
81352;BME280;70809;52.184;13.422;2024-01-25T04:47:43;101475.75;;;7.06;69.32
81352;BME280;70809;52.184;13.422;2024-01-25T04:48:45;101485.41;;;7.07;69.49
81352;BME280;70809;52.184;13.422;2024-01-25T04:49:47;101487.34;;;7.11;69.23
81352;BME280;70809;52.184;13.422;2024-01-25T04:50:48;101487.34;;;7.11;68.96
81352;BME280;70809;52.184;13.422;2024-01-25T04:51:51;101492.44;;;7.08;69.40
81352;BME280;70809;52.184;13.422;2024-01-25T04:52:52;101477.63;;;7.10;69.38
81352;BME280;70809;52.184;13.422;2024-01-25T04:53:54;101481.00;;;7.06;69.69
81352;BME280;70809;52.184;13.422;2024-01-25T04:54:56;101493.16;;;7.04;69.61
81352;BME280;70809;52.184;13.422;2024-01-25T04:55:57;101501.94;;;7.05;69.61
81352;BME280;70809;52.184;13.422;2024-01-25T04:56:59;101465.25;;;7.06;69.42
81352;BME280;70809;52.184;13.422;2024-01-25T04:58:02;101485.28;;;7.04;69.36
81352;BME280;70809;52.184;13.422;2024-01-25T04:59:04;101483.53;;;7.05;69.39
81352;BME280;70809;52.184;13.422;2024-01-25T05:00:06;101484.56;;;7.08;68.73
81352;BME280;70809;52.184;13.422;2024-01-25T05:01:08;101487.19;;;7.08;69.07
81352;BME280;70809;52.184;13.422;2024-01-25T05:02:10;101489.78;;;7.07;69.05
81352;BME280;70809;52.184;13.422;2024-01-25T05:03:12;101484.53;;;7.07;69.16
81352;BME280;70809;52.184;13.422;2024-01-25T05:04:13;101495.06;;;7.08;68.88
81352;BME280;70809;52.184;13.422;2024-01-25T05:05:15;101501.69;;;6.99;69.59
81352;BME280;70809;52.184;13.422;2024-01-25T05:06:17;101524.56;;;7.01;69.42
81352;BME280;70809;52.184;13.422;2024-01-25T05:07:18;101483.63;;;7.06;68.74
81352;BME280;70809;52.184;13.422;2024-01-25T05:08:30;101493.16;;;7.04;68.97
81352;BME280;70809;52.184;13.422;2024-01-25T05:09:31;101504.50;;;7.03;69.02
81352;BME280;70809;52.184;13.422;2024-01-25T05:10:33;101498.31;;;7.01;69.10
81352;BME280;70809;52.184;13.422;2024-01-25T05:11:38;101496.56;;;7.02;68.85
81352;BME280;70809;52.184;13.422;2024-01-25T05:12:39;101495.88;;;7.06;69.00
81352;BME280;70809;52.184;13.422;2024-01-25T05:13:42;101493.16;;;7.04;68.75
81352;BME280;70809;52.184;13.422;2024-01-25T05:14:44;101504.44;;;7.02;69.63
81352;BME280;70809;52.184;13.422;2024-01-25T05:15:45;101500.19;;;7.05;68.71
81352;BME280;70809;52.184;13.422;2024-01-25T05:16:47;101488.88;;;7.06;69.28
81352;BME280;70809;52.184;13.422;2024-01-25T05:17:48;101505.44;;;7.05;68.87
81352;BME280;70809;52.184;13.422;2024-01-25T05:18:51;101501.28;;;7.10;68.59
81352;BME280;70809;52.184;13.422;2024-01-25T05:19:53;101510.66;;;7.04;69.45
81352;BME280;70809;52.184;13.422;2024-01-25T05:20:55;101513.34;;;7.05;69.36
81352;BME280;70809;52.184;13.422;2024-01-25T05:21:58;101508.06;;;7.05;68.54
81352;BME280;70809;52.184;13.422;2024-01-25T05:22:59;101522.06;;;7.04;68.77
81352;BME280;70809;52.184;13.422;2024-01-25T05:24:01;101508.03;;;7.04;69.32
81352;BME280;70809;52.184;13.422;2024-01-25T05:25:03;101518.44;;;7.01;69.32